Alsip, Illinois
Current Conditions -  °F | °C
As of 2:16 AM on Sunday 23 Nov 2014 (Local Time) from KMDW Reporting Station
Overcast Overcast  
Wind Chill: 51°   Ceiling: 3600
Heat Index: 51°   Visibility: 8mi
Dew Point: 46°   Wind: 12mph
Humidity: 83%   Direction: 190°S
Pressure: 29.83"   Gusts: NA
Location:  41.67°N, 87.73°W
Report Text: KMDW 230816Z 19010KT 8SM FEW012 BKN036 BKN085 OVC300 11/08 A2983 RMK AO2 T01060078
Loading
Personal Weather Stations






























Interactive Weather Map New forecast layout! Learn more

10-Day Weather Forecast

Advertisements
Track Severe Weather on mobile